sensor_id;sensor_type;location;lat;lon;timestamp;pressure;altitude;pressure_sealevel;temperature;humidity
38253;BME280;24785;52.372;20.672;2023-02-03T00:08:48;101097.59;;;-0.63;100.00
38253;BME280;24785;52.372;20.672;2023-02-03T00:18:53;101094.81;;;-0.91;100.00
38253;BME280;24785;52.372;20.672;2023-02-03T00:28:54;101109.09;;;-1.08;100.00
38253;BME280;24785;52.372;20.672;2023-02-03T00:38:55;101123.16;;;-1.16;100.00
38253;BME280;24785;52.372;20.672;2023-02-03T00:48:56;101127.66;;;-0.87;100.00
38253;BME280;24785;52.372;20.672;2023-02-03T00:58:57;101127.44;;;-0.71;100.00
38253;BME280;24785;52.372;20.672;2023-02-03T01:08:57;101132.38;;;-0.82;100.00
38253;BME280;24785;52.372;20.672;2023-02-03T01:18:58;101131.53;;;-0.83;100.00
38253;BME280;24785;52.372;20.672;2023-02-03T01:29:00;101124.56;;;-0.90;100.00
38253;BME280;24785;52.372;20.672;2023-02-03T01:39:02;101126.25;;;-1.27;100.00
38253;BME280;24785;52.372;20.672;2023-02-03T01:49:08;101112.41;;;-1.44;100.00
38253;BME280;24785;52.372;20.672;2023-02-03T01:59:10;101110.59;;;-1.43;100.00
38253;BME280;24785;52.372;20.672;2023-02-03T02:09:13;101102.66;;;-1.35;100.00
38253;BME280;24785;52.372;20.672;2023-02-03T02:29:54;101084.31;;;-1.81;100.00
38253;BME280;24785;52.372;20.672;2023-02-03T02:40:10;101071.63;;;-2.00;100.00
38253;BME280;24785;52.372;20.672;2023-02-03T02:50:22;101063.13;;;-2.02;100.00
38253;BME280;24785;52.372;20.672;2023-02-03T03:00:29;101064.22;;;-2.19;100.00
38253;BME280;24785;52.372;20.672;2023-02-03T03:10:31;101067.94;;;-2.37;100.00
38253;BME280;24785;52.372;20.672;2023-02-03T03:20:34;101062.03;;;-2.39;100.00
38253;BME280;24785;52.372;20.672;2023-02-03T03:30:38;101046.78;;;-2.66;100.00
38253;BME280;24785;52.372;20.672;2023-02-03T03:40:42;101042.19;;;-2.64;100.00
38253;BME280;24785;52.372;20.672;2023-02-03T03:50:54;101040.00;;;-2.83;100.00
38253;BME280;24785;52.372;20.672;2023-02-03T04:01:02;101034.41;;;-2.89;100.00
38253;BME280;24785;52.372;20.672;2023-02-03T04:11:06;101042.06;;;-3.18;100.00
38253;BME280;24785;52.372;20.672;2023-02-03T04:21:06;101037.63;;;-3.09;100.00
38253;BME280;24785;52.372;20.672;2023-02-03T04:31:07;101033.97;;;-3.00;100.00
38253;BME280;24785;52.372;20.672;2023-02-03T04:41:08;101044.22;;;-3.22;100.00
38253;BME280;24785;52.372;20.672;2023-02-03T04:51:09;101026.88;;;-3.31;100.00
38253;BME280;24785;52.372;20.672;2023-02-03T05:01:10;101007.56;;;-3.38;100.00
38253;BME280;24785;52.372;20.672;2023-02-03T05:11:10;101004.31;;;-3.48;100.00
38253;BME280;24785;52.372;20.672;2023-02-03T05:21:11;100993.66;;;-3.46;100.00
38253;BME280;24785;52.372;20.672;2023-02-03T05:31:12;100969.25;;;-3.47;100.00
38253;BME280;24785;52.372;20.672;2023-02-03T05:41:13;100963.19;;;-3.47;100.00
38253;BME280;24785;52.372;20.672;2023-02-03T05:51:32;100963.19;;;-3.47;100.00
38253;BME280;24785;52.372;20.672;2023-02-03T06:01:34;100950.41;;;-3.42;100.00
38253;BME280;24785;52.372;20.672;2023-02-03T06:11:35;100955.44;;;-3.33;100.00
38253;BME280;24785;52.372;20.672;2023-02-03T06:21:36;100946.75;;;-3.25;100.00
38253;BME280;24785;52.372;20.672;2023-02-03T06:31:37;100911.31;;;-3.13;100.00
38253;BME280;24785;52.372;20.672;2023-02-03T06:41:37;100890.22;;;-2.97;100.00
38253;BME280;24785;52.372;20.672;2023-02-03T06:51:38;100879.06;;;-2.68;100.00
38253;BME280;24785;52.372;20.672;2023-02-03T07:01:39;100856.75;;;-2.49;100.00
38253;BME280;24785;52.372;20.672;2023-02-03T07:11:40;100830.00;;;-2.30;100.00
38253;BME280;24785;52.372;20.672;2023-02-03T07:21:40;100825.13;;;-2.03;100.00
38253;BME280;24785;52.372;20.672;2023-02-03T07:31:41;100815.63;;;-1.75;100.00
38253;BME280;24785;52.372;20.672;2023-02-03T07:41:42;100795.00;;;-1.42;100.00
38253;BME280;24785;52.372;20.672;2023-02-03T07:51:43;100784.66;;;-1.22;100.00
38253;BME280;24785;52.372;20.672;2023-02-03T08:01:44;100782.03;;;-1.01;100.00
38253;BME280;24785;52.372;20.672;2023-02-03T08:11:44;100771.59;;;-0.66;100.00
38253;BME280;24785;52.372;20.672;2023-02-03T08:21:45;100765.34;;;-0.30;100.00
38253;BME280;24785;52.372;20.672;2023-02-03T08:31:46;100742.94;;;-0.13;100.00
38253;BME280;24785;52.372;20.672;2023-02-03T08:41:47;100730.47;;;0.02;100.00
38253;BME280;24785;52.372;20.672;2023-02-03T08:51:48;100708.41;;;0.16;100.00
38253;BME280;24785;52.372;20.672;2023-02-03T09:01:49;100685.78;;;0.48;100.00
38253;BME280;24785;52.372;20.672;2023-02-03T09:11:50;100673.84;;;0.79;100.00
38253;BME280;24785;52.372;20.672;2023-02-03T09:21:51;100640.13;;;0.87;100.00
38253;BME280;24785;52.372;20.672;2023-02-03T09:31:51;100625.09;;;0.94;100.00
38253;BME280;24785;52.372;20.672;2023-02-03T09:42:16;100594.00;;;1.23;100.00
38253;BME280;24785;52.372;20.672;2023-02-03T09:52:22;100560.44;;;1.37;95.07
38253;BME280;24785;52.372;20.672;2023-02-03T10:22:46;100475.88;;;2.06;87.79
38253;BME280;24785;52.372;20.672;2023-02-03T10:32:50;100440.28;;;2.09;86.28
38253;BME280;24785;52.372;20.672;2023-02-03T10:42:54;100407.91;;;1.88;86.53
38253;BME280;24785;52.372;20.672;2023-02-03T11:03:27;100340.97;;;1.76;85.13
38253;BME280;24785;52.372;20.672;2023-02-03T11:13:28;100305.94;;;1.63;86.14
38253;BME280;24785;52.372;20.672;2023-02-03T11:23:29;100271.53;;;1.69;86.04
38253;BME280;24785;52.372;20.672;2023-02-03T11:33:30;100250.84;;;1.66;85.92
38253;BME280;24785;52.372;20.672;2023-02-03T11:43:31;100211.13;;;1.73;84.84
38253;BME280;24785;52.372;20.672;2023-02-03T12:45:28;100063.47;;;0.61;94.91
38253;BME280;24785;52.372;20.672;2023-02-03T12:55:37;100031.38;;;0.40;100.00
38253;BME280;24785;52.372;20.672;2023-02-03T13:16:20;99951.13;;;-0.08;100.00
38253;BME280;24785;52.372;20.672;2023-02-03T13:47:17;99846.53;;;-0.44;100.00
38253;BME280;24785;52.372;20.672;2023-02-03T13:57:30;99829.44;;;-0.59;100.00
38253;BME280;24785;52.372;20.672;2023-02-03T14:07:38;99797.22;;;-0.80;100.00
38253;BME280;24785;52.372;20.672;2023-02-03T14:17:54;99772.16;;;-0.82;100.00
38253;BME280;24785;52.372;20.672;2023-02-03T14:27:59;99756.63;;;-0.90;100.00
38253;BME280;24785;52.372;20.672;2023-02-03T14:38:06;99732.38;;;-0.92;100.00
38253;BME280;24785;52.372;20.672;2023-02-03T14:58:45;99695.44;;;-1.04;100.00
38253;BME280;24785;52.372;20.672;2023-02-03T15:08:49;99672.69;;;-1.17;100.00
38253;BME280;24785;52.372;20.672;2023-02-03T15:18:55;99661.59;;;-1.19;100.00
38253;BME280;24785;52.372;20.672;2023-02-03T15:28:58;99645.66;;;-1.24;100.00
38253;BME280;24785;52.372;20.672;2023-02-03T15:49:36;99618.72;;;-1.19;100.00
38253;BME280;24785;52.372;20.672;2023-02-03T15:59:41;99597.97;;;-1.28;100.00
38253;BME280;24785;52.372;20.672;2023-02-03T16:09:43;99586.66;;;-1.28;100.00
38253;BME280;24785;52.372;20.672;2023-02-03T16:19:44;99573.28;;;-1.27;100.00
38253;BME280;24785;52.372;20.672;2023-02-03T16:29:47;99556.56;;;-1.14;100.00
38253;BME280;24785;52.372;20.672;2023-02-03T16:40:08;99538.81;;;-1.18;100.00
38253;BME280;24785;52.372;20.672;2023-02-03T16:50:28;99544.88;;;-1.18;100.00
38253;BME280;24785;52.372;20.672;2023-02-03T17:00:48;99534.50;;;-1.13;100.00
38253;BME280;24785;52.372;20.672;2023-02-03T17:10:51;99544.44;;;-1.15;100.00
38253;BME280;24785;52.372;20.672;2023-02-03T17:20:52;99553.06;;;-1.08;100.00
38253;BME280;24785;52.372;20.672;2023-02-03T17:30:58;99576.38;;;-1.11;100.00
38253;BME280;24785;52.372;20.672;2023-02-03T17:41:06;99577.97;;;-1.10;100.00
38253;BME280;24785;52.372;20.672;2023-02-03T17:51:10;99567.69;;;-1.12;100.00
38253;BME280;24785;52.372;20.672;2023-02-03T18:01:15;99586.88;;;-1.11;100.00
38253;BME280;24785;52.372;20.672;2023-02-03T18:11:18;99623.25;;;-1.08;100.00
38253;BME280;24785;52.372;20.672;2023-02-03T18:21:20;99619.38;;;-1.06;100.00
38253;BME280;24785;52.372;20.672;2023-02-03T18:31:21;99619.59;;;-1.07;100.00
38253;BME280;24785;52.372;20.672;2023-02-03T18:41:25;99628.50;;;-1.08;100.00
38253;BME280;24785;52.372;20.672;2023-02-03T18:51:26;99645.47;;;-1.04;100.00
38253;BME280;24785;52.372;20.672;2023-02-03T19:01:29;99653.88;;;-0.96;100.00
38253;BME280;24785;52.372;20.672;2023-02-03T19:11:30;99645.84;;;-1.01;100.00
38253;BME280;24785;52.372;20.672;2023-02-03T19:21:33;99653.56;;;-1.06;100.00
38253;BME280;24785;52.372;20.672;2023-02-03T19:31:34;99672.41;;;-1.09;100.00
38253;BME280;24785;52.372;20.672;2023-02-03T19:41:35;99672.91;;;-1.18;100.00
38253;BME280;24785;52.372;20.672;2023-02-03T19:51:36;99688.09;;;-1.20;100.00
38253;BME280;24785;52.372;20.672;2023-02-03T20:01:37;99697.22;;;-1.23;100.00
38253;BME280;24785;52.372;20.672;2023-02-03T20:11:38;99705.91;;;-1.22;100.00
38253;BME280;24785;52.372;20.672;2023-02-03T20:21:39;99736.03;;;-1.25;100.00
38253;BME280;24785;52.372;20.672;2023-02-03T20:31:39;99714.84;;;-1.30;100.00
38253;BME280;24785;52.372;20.672;2023-02-03T20:41:40;99718.94;;;-1.34;100.00
38253;BME280;24785;52.372;20.672;2023-02-03T20:51:41;99735.94;;;-1.37;100.00
38253;BME280;24785;52.372;20.672;2023-02-03T21:01:42;99765.25;;;-1.40;100.00
38253;BME280;24785;52.372;20.672;2023-02-03T21:11:43;99792.56;;;-1.41;100.00
38253;BME280;24785;52.372;20.672;2023-02-03T21:21:44;99784.84;;;-1.42;100.00
38253;BME280;24785;52.372;20.672;2023-02-03T21:31:46;99807.53;;;-1.41;100.00
38253;BME280;24785;52.372;20.672;2023-02-03T21:41:47;99815.19;;;-1.46;100.00
38253;BME280;24785;52.372;20.672;2023-02-03T21:51:48;99821.09;;;-1.51;100.00
38253;BME280;24785;52.372;20.672;2023-02-03T22:01:50;99874.88;;;-1.53;100.00
38253;BME280;24785;52.372;20.672;2023-02-03T22:11:52;99893.88;;;-1.58;100.00
38253;BME280;24785;52.372;20.672;2023-02-03T22:21:53;99906.63;;;-1.62;100.00
38253;BME280;24785;52.372;20.672;2023-02-03T22:31:54;99910.09;;;-1.68;100.00
38253;BME280;24785;52.372;20.672;2023-02-03T22:41:54;99915.38;;;-1.81;100.00
38253;BME280;24785;52.372;20.672;2023-02-03T22:51:55;99928.91;;;-1.84;100.00
38253;BME280;24785;52.372;20.672;2023-02-03T23:01:56;99949.91;;;-1.91;100.00
38253;BME280;24785;52.372;20.672;2023-02-03T23:11:57;99979.22;;;-2.00;100.00
38253;BME280;24785;52.372;20.672;2023-02-03T23:21:58;100015.56;;;-2.04;100.00
38253;BME280;24785;52.372;20.672;2023-02-03T23:31:59;100032.13;;;-2.10;100.00
38253;BME280;24785;52.372;20.672;2023-02-03T23:41:59;100044.84;;;-2.20;100.00
38253;BME280;24785;52.372;20.672;2023-02-03T23:52:00;100092.69;;;-2.25;100.00
